createdAt,value
2018-05-25T00:01:46.818Z,20.40
2018-05-25T00:04:23.007Z,17.47
2018-05-25T00:07:00.265Z,20.47
2018-05-25T00:09:29.346Z,18.97
2018-05-25T00:11:58.607Z,19.10
2018-05-25T00:14:28.326Z,18.93
2018-05-25T00:16:57.666Z,20.70
2018-05-25T00:19:27.164Z,21.17
2018-05-25T00:22:02.515Z,22.83
2018-05-25T00:24:32.962Z,20.70
2018-05-25T00:27:10.803Z,19.60
2018-05-25T00:29:47.840Z,17.60
2018-05-25T00:32:22.965Z,18.03
2018-05-25T00:34:56.965Z,17.57
2018-05-25T00:37:28.827Z,19.70
2018-05-25T00:40:01.058Z,20.50
2018-05-25T00:42:30.265Z,18.43
2018-05-25T00:45:04.001Z,21.10
2018-05-25T00:47:32.977Z,18.53
2018-05-25T00:50:04.008Z,23.57
2018-05-25T00:52:37.113Z,17.83
2018-05-25T00:55:12.847Z,18.83
2018-05-25T00:57:48.856Z,19.47
2018-05-25T01:00:24.492Z,21.47
2018-05-25T01:02:59.739Z,17.90
2018-05-25T01:05:36.642Z,20.20
2018-05-25T01:08:07.050Z,18.40
2018-05-25T01:10:39.061Z,19.67
2018-05-25T01:13:11.321Z,18.00
2018-05-25T01:15:41.509Z,16.40
2018-05-25T01:18:11.887Z,17.10
2018-05-25T01:20:40.831Z,16.03
2018-05-25T01:23:18.087Z,15.93
2018-05-25T01:25:52.273Z,17.43
2018-05-25T01:28:21.225Z,15.50
2018-05-25T01:30:58.489Z,17.67
2018-05-25T01:33:33.033Z,15.87
2018-05-25T01:36:02.883Z,15.90
2018-05-25T01:38:33.412Z,15.30
2018-05-25T01:41:02.324Z,17.90
2018-05-25T01:43:32.089Z,18.50
2018-05-25T01:46:06.742Z,16.03
2018-05-25T01:48:39.785Z,16.23
2018-05-25T01:51:11.270Z,14.97
2018-05-25T01:53:40.233Z,15.33
2018-05-25T01:56:10.115Z,15.37
2018-05-25T01:58:39.033Z,14.67
2018-05-25T02:01:10.333Z,14.33
2018-05-25T02:03:40.028Z,14.13
2018-05-25T02:06:10.928Z,13.93
2018-05-25T02:08:48.563Z,13.23
2018-05-25T02:11:18.954Z,14.27
2018-05-25T02:13:58.546Z,15.90
2018-05-25T02:16:31.727Z,15.50
2018-05-25T02:19:08.889Z,16.37
2018-05-25T02:21:38.307Z,14.00
2018-05-25T02:24:15.129Z,16.37
2018-05-25T02:26:54.604Z,18.23
2018-05-25T02:29:26.138Z,17.50
2018-05-25T02:32:00.422Z,17.03
2018-05-25T02:34:40.744Z,15.83
2018-05-25T02:37:12.707Z,15.93
2018-05-25T02:39:47.885Z,17.23
2018-05-25T02:42:21.322Z,18.83
2018-05-25T02:44:51.693Z,15.73
2018-05-25T02:47:29.965Z,17.07
2018-05-25T02:50:03.917Z,15.00
2018-05-25T02:52:36.694Z,16.87
2018-05-25T02:55:12.167Z,15.30
2018-05-25T02:57:47.393Z,16.93
2018-05-25T03:00:21.338Z,19.63
2018-05-25T03:02:58.129Z,18.63
2018-05-25T03:05:33.511Z,17.13
2018-05-25T03:08:06.596Z,17.10
2018-05-25T03:10:43.903Z,17.13
2018-05-25T03:13:18.250Z,17.53
2018-05-25T03:15:55.670Z,17.50
2018-05-25T03:18:27.830Z,20.40
2018-05-25T03:21:02.900Z,17.30
2018-05-25T03:23:32.109Z,19.53
2018-05-25T03:26:01.024Z,19.00
2018-05-25T03:28:29.959Z,20.03
2018-05-25T03:30:59.223Z,18.73
2018-05-25T03:33:33.968Z,20.10
2018-05-25T03:36:03.210Z,19.20
2018-05-25T03:38:33.440Z,22.50
2018-05-25T03:41:09.757Z,23.40
2018-05-25T03:43:38.713Z,22.00
2018-05-25T03:46:09.933Z,23.07
2018-05-25T03:48:43.571Z,23.53
2018-05-25T03:51:13.837Z,21.63
2018-05-25T03:53:48.618Z,22.33
2018-05-25T03:56:25.658Z,22.97
2018-05-25T03:59:00.834Z,21.47
2018-05-25T04:01:38.334Z,25.70
2018-05-25T04:04:15.783Z,25.80
2018-05-25T04:06:54.839Z,21.13
2018-05-25T04:09:25.044Z,23.07
2018-05-25T04:11:55.210Z,22.63
2018-05-25T04:14:25.182Z,20.80
2018-05-25T04:16:54.189Z,22.07
2018-05-25T04:19:27.466Z,20.83
2018-05-25T04:21:58.567Z,22.73
2018-05-25T04:24:30.679Z,20.10
2018-05-25T04:27:07.048Z,22.60
2018-05-25T04:29:42.382Z,21.97
2018-05-25T04:32:17.236Z,22.17
2018-05-25T04:34:50.125Z,20.80
2018-05-25T04:37:24.126Z,20.67
2018-05-25T04:39:55.879Z,22.30
2018-05-25T04:42:30.577Z,23.10
2018-05-25T04:45:08.097Z,23.03
2018-05-25T04:47:48.222Z,25.07
2018-05-25T04:50:18.465Z,26.27
2018-05-25T04:52:51.127Z,28.03
2018-05-25T04:55:22.818Z,25.07
2018-05-25T04:57:55.979Z,27.93
2018-05-25T05:00:26.337Z,24.30
2018-05-25T05:02:55.860Z,23.93
2018-05-25T05:05:24.874Z,25.20
2018-05-25T05:07:56.102Z,22.63
2018-05-25T05:10:25.039Z,23.93
2018-05-25T05:12:58.966Z,26.63
2018-05-25T05:15:33.307Z,25.77
2018-05-25T05:18:17.025Z,26.33
2018-05-25T05:20:46.523Z,22.77
2018-05-25T05:23:27.064Z,22.50
2018-05-25T05:25:56.289Z,21.20
2018-05-25T05:28:25.231Z,23.07
2018-05-25T05:30:54.415Z,21.40
2018-05-25T05:33:24.331Z,20.47
2018-05-25T05:35:54.233Z,21.67
2018-05-25T05:38:25.032Z,22.67
2018-05-25T05:40:56.844Z,21.33
2018-05-25T05:43:26.368Z,20.70
2018-05-25T05:45:55.864Z,21.03
2018-05-25T05:48:24.913Z,19.20
2018-05-25T05:50:57.941Z,18.93
2018-05-25T05:53:35.135Z,20.43
2018-05-25T05:56:13.957Z,19.40
2018-05-25T05:58:47.957Z,20.20
2018-05-25T06:01:16.917Z,20.07
2018-05-25T06:03:54.834Z,19.17
2018-05-25T06:06:29.083Z,19.00
2018-05-25T06:08:58.373Z,18.63
2018-05-25T06:11:27.292Z,16.73
2018-05-25T06:13:57.427Z,19.27
2018-05-25T06:16:27.566Z,19.67
2018-05-25T06:19:06.220Z,20.43
2018-05-25T06:21:36.453Z,18.30
2018-05-25T06:24:08.907Z,20.10
2018-05-25T06:26:45.890Z,19.00
2018-05-25T06:29:14.822Z,18.77
2018-05-25T06:31:43.769Z,20.07
2018-05-25T06:34:12.693Z,19.10
2018-05-25T06:36:41.935Z,22.53
2018-05-25T06:39:19.656Z,21.10
2018-05-25T06:41:53.301Z,20.47
2018-05-25T06:44:27.539Z,18.83
2018-05-25T06:46:59.231Z,19.53
2018-05-25T06:49:35.989Z,20.47
2018-05-25T06:52:11.435Z,20.53
2018-05-25T06:54:44.195Z,19.70
2018-05-25T06:57:13.788Z,20.87
2018-05-25T06:59:42.985Z,19.47
2018-05-25T07:02:12.978Z,18.80
2018-05-25T07:04:49.208Z,19.87
2018-05-25T07:07:25.871Z,19.20
2018-05-25T07:09:55.516Z,21.27
2018-05-25T07:12:28.649Z,19.03
2018-05-25T07:15:02.095Z,19.60
2018-05-25T07:17:35.125Z,18.40
2018-05-25T07:20:12.914Z,18.23
2018-05-25T07:23:06.351Z,18.93
2018-05-25T07:25:38.711Z,17.63
2018-05-25T07:28:28.260Z,18.63
2018-05-25T07:31:03.555Z,19.77
2018-05-25T07:33:42.387Z,18.27
2018-05-25T07:36:12.459Z,20.03
2018-05-25T07:38:42.262Z,19.27
2018-05-25T07:41:11.238Z,17.73
2018-05-25T07:43:41.446Z,19.57
2018-05-25T07:46:13.535Z,19.13
2018-05-25T07:48:48.579Z,18.27
2018-05-25T07:51:28.061Z,17.07
2018-05-25T07:54:02.662Z,18.63
2018-05-25T07:56:34.371Z,18.00
2018-05-25T07:59:07.169Z,18.57
2018-05-25T08:01:46.768Z,18.77
2018-05-25T08:04:16.041Z,17.83
2018-05-25T08:06:45.017Z,17.50
2018-05-25T08:09:14.630Z,17.50
2018-05-25T08:11:44.189Z,16.30
2018-05-25T08:14:13.594Z,17.53
2018-05-25T08:16:45.679Z,15.67
2018-05-25T08:19:21.830Z,16.70
2018-05-25T08:21:50.762Z,17.30
2018-05-25T08:24:20.860Z,14.73
2018-05-25T08:26:49.813Z,16.80
2018-05-25T08:29:18.771Z,15.80
2018-05-25T08:31:53.324Z,16.87
2018-05-25T08:34:30.265Z,15.83
2018-05-25T08:37:00.678Z,16.20
2018-05-25T08:39:32.989Z,18.93
2018-05-25T08:42:02.873Z,18.17
2018-05-25T08:44:32.326Z,15.93
2018-05-25T08:47:01.825Z,14.30
2018-05-25T08:49:30.824Z,15.23
2018-05-25T08:52:07.376Z,15.40
2018-05-25T08:54:39.773Z,16.90
2018-05-25T08:57:08.691Z,17.47
2018-05-25T08:59:37.712Z,17.93
2018-05-25T09:02:07.532Z,17.27
2018-05-25T09:04:38.467Z,17.23
2018-05-25T09:07:18.995Z,16.40
2018-05-25T09:09:49.381Z,15.80
2018-05-25T09:12:19.018Z,15.37
2018-05-25T09:14:47.961Z,16.33
2018-05-25T09:17:17.356Z,15.00
2018-05-25T09:19:46.295Z,19.13
2018-05-25T09:22:16.573Z,16.17
2018-05-25T09:24:54.115Z,18.03
2018-05-25T09:27:28.198Z,18.60
2018-05-25T09:30:05.135Z,22.00
2018-05-25T09:32:35.622Z,17.93
2018-05-25T09:35:15.522Z,18.57
2018-05-25T09:37:46.394Z,18.10
2018-05-25T09:40:16.845Z,22.00
2018-05-25T09:42:45.785Z,22.57
2018-05-25T09:45:14.746Z,20.53
2018-05-25T09:47:45.530Z,19.20
2018-05-25T09:50:16.253Z,19.70
2018-05-25T09:52:47.809Z,19.40
2018-05-25T09:55:17.213Z,18.17
2018-05-25T09:57:52.536Z,18.37
2018-05-25T10:00:22.227Z,18.10
2018-05-25T10:02:51.918Z,17.47
2018-05-25T10:05:29.872Z,18.57
2018-05-25T10:07:58.810Z,18.37
2018-05-25T10:10:27.750Z,18.67
2018-05-25T10:13:07.527Z,19.70
2018-05-25T10:15:40.944Z,18.10
2018-05-25T10:18:15.472Z,16.73
2018-05-25T10:20:46.871Z,17.70
2018-05-25T10:23:15.933Z,17.67
2018-05-25T10:25:44.983Z,18.37
2018-05-25T10:28:13.939Z,18.27
2018-05-25T10:30:43.555Z,18.43
2018-05-25T10:33:16.058Z,17.63
2018-05-25T10:35:49.987Z,17.83
2018-05-25T10:38:22.794Z,17.23
2018-05-25T10:40:55.176Z,18.83
2018-05-25T10:43:39.060Z,19.87
2018-05-25T10:46:08.721Z,21.30
2018-05-25T10:48:40.631Z,20.53
2018-05-25T10:51:14.707Z,19.70
2018-05-25T10:53:49.815Z,19.53
2018-05-25T10:56:22.474Z,20.70
2018-05-25T10:59:01.006Z,18.20
2018-05-25T11:01:31.940Z,20.40
2018-05-25T11:04:04.378Z,18.63
2018-05-25T11:06:33.706Z,19.27
2018-05-25T11:09:04.133Z,19.17
2018-05-25T11:11:33.188Z,19.53
2018-05-25T11:14:03.091Z,19.00
2018-05-25T11:16:32.518Z,17.93
2018-05-25T11:19:08.525Z,18.40
2018-05-25T11:21:44.666Z,18.43
2018-05-25T11:24:16.065Z,18.73
2018-05-25T11:26:45.299Z,19.23
2018-05-25T11:29:14.279Z,17.80
2018-05-25T11:31:48.014Z,22.27
2018-05-25T11:34:16.964Z,18.67
2018-05-25T11:36:47.223Z,20.30
2018-05-25T11:39:21.135Z,20.03
2018-05-25T11:41:58.506Z,21.17
2018-05-25T11:44:33.123Z,22.13
2018-05-25T11:47:02.062Z,20.20
2018-05-25T11:49:31.012Z,19.83
2018-05-25T11:52:00.586Z,23.50
2018-05-25T11:54:32.840Z,21.20
2018-05-25T11:57:04.254Z,19.40
2018-05-25T11:59:37.198Z,18.20
2018-05-25T12:02:06.945Z,20.77
2018-05-25T12:04:37.361Z,19.50
2018-05-25T12:07:06.350Z,21.13
2018-05-25T12:09:35.329Z,18.03
2018-05-25T12:12:07.102Z,19.50
2018-05-25T12:14:36.811Z,21.30
2018-05-25T12:17:05.733Z,20.83
2018-05-25T12:19:34.712Z,20.13
2018-05-25T12:22:04.437Z,17.97
2018-05-25T12:24:34.043Z,18.77
2018-05-25T12:27:02.974Z,17.90
2018-05-25T12:29:31.940Z,17.00
2018-05-25T12:32:00.888Z,20.20
2018-05-25T12:34:36.154Z,17.57
2018-05-25T12:37:07.575Z,16.27
2018-05-25T12:39:37.937Z,18.83
2018-05-25T12:42:06.874Z,18.27
2018-05-25T12:44:42.558Z,16.97
2018-05-25T12:47:15.550Z,18.33
2018-05-25T12:49:44.804Z,18.83
2018-05-25T12:52:15.867Z,18.87
2018-05-25T12:54:45.080Z,19.00
2018-05-25T12:57:14.018Z,17.40
2018-05-25T12:59:47.543Z,17.53
2018-05-25T13:02:23.082Z,17.30
2018-05-25T13:05:01.058Z,16.60
2018-05-25T13:07:30.008Z,18.23
2018-05-25T13:10:00.952Z,18.97
2018-05-25T13:12:29.895Z,17.80
2018-05-25T13:14:59.066Z,17.93
2018-05-25T13:17:28.001Z,17.83
2018-05-25T13:19:57.358Z,18.80
2018-05-25T13:22:30.644Z,18.20
2018-05-25T13:24:59.703Z,18.77
2018-05-25T13:27:28.654Z,21.60
2018-05-25T13:29:58.211Z,22.27
2018-05-25T13:32:27.134Z,21.77
2018-05-25T13:35:01.710Z,22.10
2018-05-25T13:37:32.782Z,22.40
2018-05-25T13:40:02.814Z,22.67
2018-05-25T13:42:33.369Z,21.77
2018-05-25T13:45:02.626Z,22.77
2018-05-25T13:47:34.993Z,21.50
2018-05-25T13:50:12.308Z,22.30
2018-05-25T13:52:49.942Z,23.30
2018-05-25T13:55:19.598Z,22.60
2018-05-25T13:57:51.682Z,25.03
2018-05-25T14:00:23.535Z,24.33
2018-05-25T14:03:04.609Z,24.43
2018-05-25T14:05:43.061Z,23.77
2018-05-25T14:08:12.770Z,24.33
2018-05-25T14:10:42.431Z,24.17
2018-05-25T14:13:11.387Z,22.30
2018-05-25T14:15:41.651Z,27.07
2018-05-25T14:18:22.518Z,26.67
2018-05-25T14:20:52.962Z,24.57
2018-05-25T14:23:26.076Z,23.83
2018-05-25T14:26:02.373Z,26.37
2018-05-25T14:28:38.041Z,24.63
2018-05-25T14:31:07.798Z,25.57
2018-05-25T14:33:37.391Z,24.33
2018-05-25T14:36:06.378Z,23.67
2018-05-25T14:38:35.325Z,24.13
2018-05-25T14:41:09.132Z,23.60
2018-05-25T14:43:40.326Z,22.40
2018-05-25T14:46:10.786Z,20.83
2018-05-25T14:48:49.085Z,19.90
2018-05-25T14:51:24.003Z,21.23
2018-05-25T14:53:59.016Z,22.73
2018-05-25T14:56:37.034Z,21.47
2018-05-25T14:59:10.199Z,22.53
2018-05-25T15:01:40.028Z,22.10
2018-05-25T15:04:19.014Z,23.13
2018-05-25T15:06:51.529Z,21.83
2018-05-25T15:09:26.511Z,23.57
2018-05-25T15:12:03.200Z,23.03
2018-05-25T15:14:35.132Z,25.47
2018-05-25T15:17:08.463Z,21.87
2018-05-25T15:19:42.153Z,21.30
2018-05-25T15:22:12.527Z,17.93
2018-05-25T15:24:41.525Z,16.97
2018-05-25T15:27:10.857Z,21.43
2018-05-25T15:29:42.108Z,21.23
2018-05-25T15:32:11.405Z,20.50
2018-05-25T15:34:43.430Z,20.50
2018-05-25T15:37:18.729Z,18.17
2018-05-25T15:40:06.636Z,16.80
2018-05-25T15:42:39.826Z,18.27
2018-05-25T15:45:16.816Z,18.30
2018-05-25T15:47:49.363Z,17.27
2018-05-25T15:50:24.211Z,17.80
2018-05-25T15:53:06.882Z,19.43
2018-05-25T15:55:41.431Z,19.03
2018-05-25T15:58:16.176Z,21.10
2018-05-25T16:00:56.116Z,19.63
2018-05-25T16:03:34.156Z,18.33
2018-05-25T16:06:03.171Z,18.63
2018-05-25T16:08:34.173Z,17.57
2018-05-25T16:11:11.466Z,18.97
2018-05-25T16:13:41.377Z,18.37
2018-05-25T16:16:11.469Z,17.50
2018-05-25T16:18:41.037Z,16.97
2018-05-25T16:21:10.566Z,16.67
2018-05-25T16:23:56.896Z,17.93
2018-05-25T16:26:26.096Z,17.67
2018-05-25T16:29:02.911Z,17.73
2018-05-25T16:31:33.006Z,16.57
2018-05-25T16:34:02.822Z,17.47
2018-05-25T16:36:35.920Z,16.43
2018-05-25T16:39:12.525Z,15.60
2018-05-25T16:41:45.365Z,15.97
2018-05-25T16:44:14.544Z,16.10
2018-05-25T16:46:48.083Z,16.20
2018-05-25T16:49:26.259Z,16.27
2018-05-25T16:51:56.947Z,15.83
2018-05-25T16:54:41.069Z,17.47
2018-05-25T16:57:16.172Z,17.73
2018-05-25T16:59:48.524Z,17.03
2018-05-25T17:02:18.749Z,18.33
2018-05-25T17:04:57.757Z,17.23
2018-05-25T17:07:27.332Z,17.30
2018-05-25T17:09:58.537Z,17.77
2018-05-25T17:12:28.516Z,18.53
2018-05-25T17:14:58.045Z,17.37
2018-05-25T17:17:28.102Z,16.23
2018-05-25T17:20:01.501Z,16.13
2018-05-25T17:22:33.904Z,16.23
2018-05-25T17:25:06.800Z,15.63
2018-05-25T17:27:46.304Z,17.30
2018-05-25T17:30:23.912Z,18.87
2018-05-25T17:32:53.751Z,15.17
2018-05-25T17:35:25.651Z,15.17
2018-05-25T17:37:58.957Z,15.80
2018-05-25T17:40:28.099Z,17.10
2018-05-25T17:42:57.838Z,15.63
2018-05-25T17:45:26.776Z,15.30
2018-05-25T17:47:58.390Z,16.47
2018-05-25T17:50:35.892Z,16.87
2018-05-25T17:53:08.745Z,14.53
2018-05-25T17:55:47.356Z,16.20
2018-05-25T17:58:20.416Z,15.90
2018-05-25T18:00:53.370Z,15.83
2018-05-25T18:03:22.989Z,14.60
2018-05-25T18:05:51.930Z,13.10
2018-05-25T18:08:20.869Z,13.87
2018-05-25T18:10:51.028Z,14.87
2018-05-25T18:13:21.492Z,15.10
2018-05-25T18:15:55.365Z,15.37
2018-05-25T18:18:31.111Z,16.50
2018-05-25T18:21:03.735Z,16.80
2018-05-25T18:23:33.358Z,18.27
2018-05-25T18:26:08.050Z,19.13
2018-05-25T18:28:36.971Z,18.93
2018-05-25T18:31:05.913Z,18.33
2018-05-25T18:33:35.598Z,17.33
2018-05-25T18:36:04.554Z,18.97
2018-05-25T18:38:39.351Z,17.10
2018-05-25T18:41:08.554Z,17.97
2018-05-25T18:46:22.985Z,17.33
2018-05-25T18:49:00.795Z,16.40
2018-05-25T18:51:30.282Z,15.53
2018-05-25T18:54:07.095Z,16.67
2018-05-25T18:56:36.075Z,16.67
2018-05-25T18:59:09.349Z,16.43
2018-05-25T19:01:38.289Z,16.67
2018-05-25T19:04:07.374Z,16.77
2018-05-25T19:06:41.493Z,17.63
2018-05-25T19:09:12.148Z,16.63
2018-05-25T19:11:41.812Z,15.93
2018-05-25T19:14:11.287Z,13.43
2018-05-25T19:16:43.319Z,15.03
2018-05-25T19:19:13.515Z,12.83
2018-05-25T19:21:43.422Z,15.37
2018-05-25T19:24:15.351Z,16.43
2018-05-25T19:26:45.035Z,16.03
2018-05-25T19:29:13.998Z,16.07
2018-05-25T19:31:45.514Z,18.07
2018-05-25T19:34:15.521Z,18.57
2018-05-25T19:36:44.763Z,18.53
2018-05-25T19:39:21.499Z,18.50
2018-05-25T19:41:50.783Z,19.20
2018-05-25T19:44:26.872Z,19.13
2018-05-25T19:46:56.296Z,20.00
2018-05-25T19:49:32.372Z,18.37
2018-05-25T19:52:01.359Z,18.63
2018-05-25T19:54:30.309Z,19.87
2018-05-25T19:56:59.246Z,19.73
2018-05-25T19:59:32.184Z,19.10
2018-05-25T20:02:04.046Z,22.47
2018-05-25T20:04:38.049Z,18.97
2018-05-25T20:07:18.517Z,21.57
2018-05-25T20:09:50.326Z,20.10
2018-05-25T20:12:25.395Z,18.97
2018-05-25T20:14:58.978Z,19.63
2018-05-25T20:17:37.887Z,20.13
2018-05-25T20:20:09.705Z,20.47
2018-05-25T20:22:41.770Z,19.37
2018-05-25T20:25:14.324Z,19.00
2018-05-25T20:27:48.022Z,18.47
2018-05-25T20:30:27.280Z,20.30
2018-05-25T20:33:06.309Z,20.03
2018-05-25T20:35:38.765Z,21.40
2018-05-25T20:38:10.336Z,21.10
2018-05-25T20:40:47.908Z,22.17
2018-05-25T20:43:18.983Z,21.27
2018-05-25T20:45:54.559Z,21.00
2018-05-25T20:48:26.195Z,19.97
2018-05-25T20:51:07.448Z,20.23
2018-05-25T20:53:40.025Z,20.40
2018-05-25T20:56:09.813Z,20.53
2018-05-25T20:58:46.521Z,20.93
2018-05-25T21:01:17.964Z,23.17
2018-05-25T21:03:51.452Z,21.07
2018-05-25T21:06:29.193Z,23.17
2018-05-25T21:08:59.308Z,22.37
2018-05-25T21:11:28.258Z,21.27
2018-05-25T21:14:03.896Z,22.37
2018-05-25T21:16:32.840Z,22.87
2018-05-25T21:19:02.854Z,21.13
2018-05-25T21:21:40.159Z,20.70
2018-05-25T21:24:19.171Z,22.10
2018-05-25T21:26:48.930Z,26.50
2018-05-25T21:29:19.344Z,25.23
2018-05-25T21:31:48.924Z,23.63
2018-05-25T21:34:18.860Z,27.03
2018-05-25T21:36:49.180Z,24.60
2018-05-25T21:39:22.991Z,28.43
2018-05-25T21:41:59.906Z,26.90
2018-05-25T21:44:33.868Z,29.73
2018-05-25T21:47:05.608Z,25.57
2018-05-25T21:49:40.933Z,26.03
2018-05-25T21:52:10.780Z,25.67
2018-05-25T21:54:48.258Z,26.10
2018-05-25T21:57:22.639Z,26.47
2018-05-25T21:59:57.695Z,26.47
2018-05-25T22:02:33.526Z,24.60
2018-05-25T22:05:02.569Z,24.67
2018-05-25T22:07:31.884Z,28.27
2018-05-25T22:10:01.023Z,26.37
2018-05-25T22:12:29.981Z,27.93
2018-05-25T22:15:02.567Z,29.97
2018-05-25T22:17:31.543Z,29.17
2018-05-25T22:20:01.428Z,31.23
2018-05-25T22:22:32.541Z,31.43
2018-05-25T22:25:01.489Z,29.60
2018-05-25T22:27:32.400Z,32.30
2018-05-25T22:30:07.911Z,31.37
2018-05-25T22:32:39.746Z,30.00
2018-05-25T22:35:10.598Z,29.63
2018-05-25T22:37:40.084Z,31.03
2018-05-25T22:40:09.321Z,30.37
2018-05-25T22:42:46.736Z,29.37
2018-05-25T22:45:24.531Z,29.57
2018-05-25T22:47:59.671Z,30.13
2018-05-25T22:50:37.005Z,31.33
2018-05-25T22:53:11.423Z,29.57
2018-05-25T22:55:41.222Z,27.87
2018-05-25T22:58:11.417Z,29.40
2018-05-25T23:00:47.881Z,29.37
2018-05-25T23:03:17.293Z,28.83
2018-05-25T23:05:46.512Z,30.10
2018-05-25T23:08:16.135Z,28.43
2018-05-25T23:10:45.593Z,31.00
2018-05-25T23:13:19.910Z,29.93
2018-05-25T23:15:53.357Z,29.57
2018-05-25T23:18:24.356Z,29.27
2018-05-25T23:21:01.150Z,29.97
2018-05-25T23:23:32.823Z,29.67
2018-05-25T23:26:01.881Z,28.30
2018-05-25T23:28:34.452Z,31.23
2018-05-25T23:31:03.870Z,29.10
2018-05-25T23:33:33.485Z,29.60
2018-05-25T23:36:03.926Z,33.50
2018-05-25T23:38:34.204Z,30.33
2018-05-25T23:41:12.535Z,30.30
2018-05-25T23:43:47.228Z,32.47
2018-05-25T23:46:17.789Z,35.70
2018-05-25T23:48:48.464Z,32.87
2018-05-25T23:51:17.405Z,29.70
2018-05-25T23:53:47.507Z,32.43
2018-05-25T23:56:17.444Z,31.90
2018-05-25T23:58:46.388Z,33.50
